sensor_id;sensor_type;location;lat;lon;timestamp;pressure;altitude;pressure_sealevel;temperature;humidity
72612;BME280;60655;52.182;4.474;2023-10-13T00:01:06;100999.19;;;17.32;100.00
72612;BME280;60655;52.182;4.474;2023-10-13T00:03:09;100990.25;;;17.26;100.00
72612;BME280;60655;52.182;4.474;2023-10-13T00:05:15;100991.06;;;17.27;100.00
72612;BME280;60655;52.182;4.474;2023-10-13T00:07:17;100995.63;;;17.26;100.00
72612;BME280;60655;52.182;4.474;2023-10-13T00:09:19;101004.19;;;17.23;100.00
72612;BME280;60655;52.182;4.474;2023-10-13T00:11:25;100999.63;;;17.24;100.00
72612;BME280;60655;52.182;4.474;2023-10-13T00:13:27;100995.03;;;17.19;100.00
72612;BME280;60655;52.182;4.474;2023-10-13T00:15:29;100996.44;;;17.27;100.00
72612;BME280;60655;52.182;4.474;2023-10-13T00:17:30;100994.81;;;17.26;100.00
72612;BME280;60655;52.182;4.474;2023-10-13T00:19:34;100982.47;;;17.25;100.00
72612;BME280;60655;52.182;4.474;2023-10-13T00:21:44;100985.44;;;17.28;100.00
72612;BME280;60655;52.182;4.474;2023-10-13T00:23:46;100990.53;;;17.25;100.00
72612;BME280;60655;52.182;4.474;2023-10-13T00:25:53;100982.22;;;17.26;100.00
72612;BME280;60655;52.182;4.474;2023-10-13T00:27:57;100985.19;;;17.30;100.00
72612;BME280;60655;52.182;4.474;2023-10-13T00:30:00;100982.22;;;17.26;100.00
72612;BME280;60655;52.182;4.474;2023-10-13T00:32:16;100984.34;;;17.24;100.00
72612;BME280;60655;52.182;4.474;2023-10-13T00:34:20;100975.72;;;17.22;100.00
72612;BME280;60655;52.182;4.474;2023-10-13T00:36:33;100975.97;;;17.20;100.00
72612;BME280;60655;52.182;4.474;2023-10-13T00:38:35;100960.44;;;17.23;100.00
72612;BME280;60655;52.182;4.474;2023-10-13T00:40:36;100953.75;;;17.25;100.00
72612;BME280;60655;52.182;4.474;2023-10-13T00:42:37;100953.75;;;17.25;100.00
72612;BME280;60655;52.182;4.474;2023-10-13T00:44:51;100951.06;;;17.25;100.00
72612;BME280;60655;52.182;4.474;2023-10-13T00:46:55;100945.13;;;17.23;100.00
72612;BME280;60655;52.182;4.474;2023-10-13T00:48:57;100956.69;;;17.24;100.00
72612;BME280;60655;52.182;4.474;2023-10-13T00:51:02;100951.06;;;17.25;100.00
72612;BME280;60655;52.182;4.474;2023-10-13T00:53:04;100946.44;;;17.20;100.00
72612;BME280;60655;52.182;4.474;2023-10-13T00:55:05;100950.97;;;17.15;100.00
72612;BME280;60655;52.182;4.474;2023-10-13T00:57:09;100944.03;;;17.19;100.00
72612;BME280;60655;52.182;4.474;2023-10-13T00:59:26;100933.25;;;17.14;100.00
72612;BME280;60655;52.182;4.474;2023-10-13T01:01:29;100938.31;;;17.10;100.00
72612;BME280;60655;52.182;4.474;2023-10-13T01:03:33;100925.19;;;17.14;100.00
72612;BME280;60655;52.182;4.474;2023-10-13T01:05:35;100930.50;;;17.09;100.00
72612;BME280;60655;52.182;4.474;2023-10-13T01:07:38;100919.53;;;17.10;100.00
72612;BME280;60655;52.182;4.474;2023-10-13T01:09:42;100925.94;;;17.09;100.00
72612;BME280;60655;52.182;4.474;2023-10-13T01:11:45;100923.06;;;17.16;100.00
72612;BME280;60655;52.182;4.474;2023-10-13T01:13:48;100917.91;;;17.09;100.00
72612;BME280;60655;52.182;4.474;2023-10-13T01:15:51;100910.66;;;17.10;100.00
72612;BME280;60655;52.182;4.474;2023-10-13T01:17:53;100913.91;;;17.12;100.00
72612;BME280;60655;52.182;4.474;2023-10-13T01:19:57;100915.56;;;17.18;100.00
72612;BME280;60655;52.182;4.474;2023-10-13T01:21:59;100903.94;;;17.07;100.00
72612;BME280;60655;52.182;4.474;2023-10-13T01:24:03;100884.59;;;17.05;100.00
72612;BME280;60655;52.182;4.474;2023-10-13T01:26:08;100895.09;;;17.12;100.00
72612;BME280;60655;52.182;4.474;2023-10-13T01:28:10;100896.16;;;17.11;100.00
72612;BME280;60655;52.182;4.474;2023-10-13T01:30:12;100901.84;;;17.14;100.00
72612;BME280;60655;52.182;4.474;2023-10-13T01:32:15;100885.19;;;17.12;100.00
72612;BME280;60655;52.182;4.474;2023-10-13T01:34:18;100894.59;;;17.15;100.00
72612;BME280;60655;52.182;4.474;2023-10-13T01:36:26;100892.41;;;17.12;100.00
72612;BME280;60655;52.182;4.474;2023-10-13T01:38:27;100886.19;;;17.06;100.00
72612;BME280;60655;52.182;4.474;2023-10-13T01:40:28;100882.75;;;17.11;100.00
72612;BME280;60655;52.182;4.474;2023-10-13T01:42:34;100887.59;;;17.14;100.00
72612;BME280;60655;52.182;4.474;2023-10-13T01:44:37;100882.75;;;17.11;100.00
72612;BME280;60655;52.182;4.474;2023-10-13T01:46:38;100872.00;;;17.11;100.00
72612;BME280;60655;52.182;4.474;2023-10-13T01:48:40;100873.13;;;17.15;100.00
72612;BME280;60655;52.182;4.474;2023-10-13T01:50:41;100872.06;;;17.16;100.00
72612;BME280;60655;52.182;4.474;2023-10-13T01:52:42;100874.19;;;17.14;100.00
72612;BME280;60655;52.182;4.474;2023-10-13T01:54:46;100859.09;;;17.08;100.00
72612;BME280;60655;52.182;4.474;2023-10-13T01:56:49;100865.53;;;17.07;100.00
72612;BME280;60655;52.182;4.474;2023-10-13T01:58:50;100851.91;;;17.13;100.00
72612;BME280;60655;52.182;4.474;2023-10-13T02:00:52;100851.34;;;17.11;100.00
72612;BME280;60655;52.182;4.474;2023-10-13T02:02:53;100852.16;;;17.12;100.00
72612;BME280;60655;52.182;4.474;2023-10-13T02:04:55;100850.03;;;17.14;100.00
72612;BME280;60655;52.182;4.474;2023-10-13T02:07:03;100846.28;;;17.15;100.00
72612;BME280;60655;52.182;4.474;2023-10-13T02:09:05;100843.84;;;17.13;100.00
72612;BME280;60655;52.182;4.474;2023-10-13T02:11:12;100840.59;;;17.11;100.00
72612;BME280;60655;52.182;4.474;2023-10-13T02:13:14;100833.38;;;17.12;100.00
72612;BME280;60655;52.182;4.474;2023-10-13T02:15:18;100826.38;;;17.11;100.00
72612;BME280;60655;52.182;4.474;2023-10-13T02:17:22;100822.34;;;17.08;100.00
72612;BME280;60655;52.182;4.474;2023-10-13T02:19:27;100825.81;;;17.09;100.00
72612;BME280;60655;52.182;4.474;2023-10-13T02:21:28;100819.09;;;17.06;100.00
72612;BME280;60655;52.182;4.474;2023-10-13T02:23:32;100800.06;;;17.03;100.00
72612;BME280;60655;52.182;4.474;2023-10-13T02:25:34;100807.81;;;17.04;100.00
72612;BME280;60655;52.182;4.474;2023-10-13T02:27:46;100814.84;;;17.10;100.00
72612;BME280;60655;52.182;4.474;2023-10-13T02:29:58;100808.41;;;17.11;100.00
72612;BME280;60655;52.182;4.474;2023-10-13T02:32:00;100802.72;;;17.03;100.00
72612;BME280;60655;52.182;4.474;2023-10-13T02:34:05;100785.53;;;17.04;100.00
72612;BME280;60655;52.182;4.474;2023-10-13T02:36:10;100776.97;;;17.02;100.00
72612;BME280;60655;52.182;4.474;2023-10-13T02:38:12;100775.31;;;16.96;100.00
72612;BME280;60655;52.182;4.474;2023-10-13T02:40:14;100776.66;;;16.98;100.00
72612;BME280;60655;52.182;4.474;2023-10-13T02:42:15;100771.84;;;17.00;100.00
72612;BME280;60655;52.182;4.474;2023-10-13T02:44:25;100767.28;;;17.01;100.00
72612;BME280;60655;52.182;4.474;2023-10-13T02:46:33;100769.16;;;17.00;100.00
72612;BME280;60655;52.182;4.474;2023-10-13T02:48:36;100755.16;;;16.93;100.00
72612;BME280;60655;52.182;4.474;2023-10-13T02:50:40;100735.50;;;16.82;100.00
72612;BME280;60655;52.182;4.474;2023-10-13T02:52:47;100742.03;;;16.97;100.00
72612;BME280;60655;52.182;4.474;2023-10-13T02:54:51;100739.28;;;16.86;100.00
72612;BME280;60655;52.182;4.474;2023-10-13T02:56:52;100723.47;;;16.90;100.00
72612;BME280;60655;52.182;4.474;2023-10-13T02:59:01;100719.47;;;16.93;100.00
72612;BME280;60655;52.182;4.474;2023-10-13T03:01:07;100712.81;;;17.00;100.00
72612;BME280;60655;52.182;4.474;2023-10-13T03:03:17;100715.75;;;16.99;100.00
72612;BME280;60655;52.182;4.474;2023-10-13T03:05:20;100707.63;;;16.88;100.00
72612;BME280;60655;52.182;4.474;2023-10-13T03:07:23;100687.22;;;16.82;100.00
72612;BME280;60655;52.182;4.474;2023-10-13T03:09:24;100695.31;;;16.93;100.00
72612;BME280;60655;52.182;4.474;2023-10-13T03:11:25;100702.53;;;16.87;100.00
72612;BME280;60655;52.182;4.474;2023-10-13T03:13:26;100692.88;;;16.86;100.00
72612;BME280;60655;52.182;4.474;2023-10-13T03:15:31;100678.09;;;16.83;100.00
72612;BME280;60655;52.182;4.474;2023-10-13T03:17:32;100683.19;;;16.85;100.00
72612;BME280;60655;52.182;4.474;2023-10-13T03:19:35;100689.41;;;16.91;100.00
72612;BME280;60655;52.182;4.474;2023-10-13T03:21:39;100675.47;;;16.94;100.00
72612;BME280;60655;52.182;4.474;2023-10-13T03:23:45;100660.97;;;16.90;100.00
72612;BME280;60655;52.182;4.474;2023-10-13T03:25:47;100649.13;;;16.85;100.00
72612;BME280;60655;52.182;4.474;2023-10-13T03:27:51;100638.94;;;16.87;100.00
72612;BME280;60655;52.182;4.474;2023-10-13T03:29:52;100641.88;;;16.81;100.00
72612;BME280;60655;52.182;4.474;2023-10-13T03:31:56;100640.28;;;16.85;100.00
72612;BME280;60655;52.182;4.474;2023-10-13T03:34:07;100622.56;;;16.84;100.00
72612;BME280;60655;52.182;4.474;2023-10-13T03:36:13;100620.41;;;16.81;100.00
72612;BME280;60655;52.182;4.474;2023-10-13T03:38:34;100613.94;;;16.77;100.00
72612;BME280;60655;52.182;4.474;2023-10-13T03:40:37;100615.31;;;16.74;100.00
72612;BME280;60655;52.182;4.474;2023-10-13T03:42:40;100613.41;;;16.70;100.00
72612;BME280;60655;52.182;4.474;2023-10-13T03:44:41;100609.13;;;16.79;100.00
72612;BME280;60655;52.182;4.474;2023-10-13T03:46:46;100609.63;;;16.76;100.00
72612;BME280;60655;52.182;4.474;2023-10-13T03:48:50;100596.78;;;16.73;100.00
72612;BME280;60655;52.182;4.474;2023-10-13T03:51:00;100604.00;;;16.77;100.00
72612;BME280;60655;52.182;4.474;2023-10-13T03:53:04;100602.16;;;16.73;100.00
72612;BME280;60655;52.182;4.474;2023-10-13T03:55:07;100599.19;;;16.69;100.00
72612;BME280;60655;52.182;4.474;2023-10-13T03:57:09;100590.88;;;16.71;100.00
72612;BME280;60655;52.182;4.474;2023-10-13T03:59:13;100595.88;;;16.62;100.00
72612;BME280;60655;52.182;4.474;2023-10-13T04:01:14;100588.66;;;16.63;100.00
72612;BME280;60655;52.182;4.474;2023-10-13T04:03:18;100586.75;;;16.58;100.00
72612;BME280;60655;52.182;4.474;2023-10-13T04:05:20;100571.22;;;16.60;100.00
72612;BME280;60655;52.182;4.474;2023-10-13T04:07:40;100569.66;;;16.64;100.00
72612;BME280;60655;52.182;4.474;2023-10-13T04:10:01;100555.38;;;16.59;100.00
72612;BME280;60655;52.182;4.474;2023-10-13T04:12:31;100561.03;;;16.62;100.00
72612;BME280;60655;52.182;4.474;2023-10-13T04:14:52;100554.31;;;16.60;100.00
72612;BME280;60655;52.182;4.474;2023-10-13T04:16:58;100550.53;;;16.55;100.00
72612;BME280;60655;52.182;4.474;2023-10-13T04:19:02;100548.38;;;16.52;100.00
72612;BME280;60655;52.182;4.474;2023-10-13T04:21:03;100556.44;;;16.58;100.00
72612;BME280;60655;52.182;4.474;2023-10-13T04:23:29;100568.06;;;16.68;100.00
72612;BME280;60655;52.182;4.474;2023-10-13T04:25:50;100542.22;;;16.57;100.00
72612;BME280;60655;52.182;4.474;2023-10-13T04:27:51;100540.69;;;16.66;100.00
72612;BME280;60655;52.182;4.474;2023-10-13T04:30:15;100537.69;;;16.63;100.00
72612;BME280;60655;52.182;4.474;2023-10-13T04:32:27;100530.78;;;16.67;100.00
72612;BME280;60655;52.182;4.474;2023-10-13T04:34:38;100529.97;;;16.71;100.00
72612;BME280;60655;52.182;4.474;2023-10-13T04:36:40;100524.63;;;16.81;100.00
72612;BME280;60655;52.182;4.474;2023-10-13T04:38:50;100505.03;;;16.76;100.00
72612;BME280;60655;52.182;4.474;2023-10-13T04:41:00;100499.94;;;16.84;100.00
72612;BME280;60655;52.182;4.474;2023-10-13T04:43:03;100495.41;;;16.90;100.00
72612;BME280;60655;52.182;4.474;2023-10-13T04:45:26;100497.84;;;17.02;100.00
72612;BME280;60655;52.182;4.474;2023-10-13T04:47:33;100487.13;;;17.02;100.00
72612;BME280;60655;52.182;4.474;2023-10-13T04:49:42;100494.63;;;17.10;100.00
72612;BME280;60655;52.182;4.474;2023-10-13T04:51:43;100490.84;;;17.11;100.00
72612;BME280;60655;52.182;4.474;2023-10-13T04:53:51;100502.13;;;17.13;100.00
72612;BME280;60655;52.182;4.474;2023-10-13T04:56:02;100503.22;;;17.17;100.00
72612;BME280;60655;52.182;4.474;2023-10-13T04:58:03;100505.91;;;17.17;100.00
72612;BME280;60655;52.182;4.474;2023-10-13T05:00:36;100502.69;;;17.15;100.00
72612;BME280;60655;52.182;4.474;2023-10-13T05:03:15;100508.03;;;17.15;100.00
72612;BME280;60655;52.182;4.474;2023-10-13T05:05:54;100506.44;;;17.14;100.00
72612;BME280;60655;52.182;4.474;2023-10-13T05:08:14;100500.53;;;17.17;100.00
72612;BME280;60655;52.182;4.474;2023-10-13T05:10:36;100481.75;;;17.17;100.00
72612;BME280;60655;52.182;4.474;2023-10-13T05:12:56;100477.44;;;17.16;100.00
72612;BME280;60655;52.182;4.474;2023-10-13T05:15:15;100471.00;;;17.12;100.00
72612;BME280;60655;52.182;4.474;2023-10-13T05:17:34;100467.50;;;17.11;100.00
72612;BME280;60655;52.182;4.474;2023-10-13T05:19:56;100471.81;;;17.02;100.00
72612;BME280;60655;52.182;4.474;2023-10-13T05:22:16;100477.69;;;17.04;100.00
72612;BME280;60655;52.182;4.474;2023-10-13T05:24:36;100457.88;;;17.00;100.00
72612;BME280;60655;52.182;4.474;2023-10-13T05:26:55;100463.50;;;16.99;100.00
72612;BME280;60655;52.182;4.474;2023-10-13T05:29:14;100464.03;;;16.96;100.00
72612;BME280;60655;52.182;4.474;2023-10-13T05:31:34;100470.19;;;16.96;100.00
72612;BME280;60655;52.182;4.474;2023-10-13T05:33:53;100445.22;;;16.80;100.00
72612;BME280;60655;52.182;4.474;2023-10-13T05:36:13;100443.09;;;16.87;100.00
72612;BME280;60655;52.182;4.474;2023-10-13T05:38:33;100445.75;;;16.87;100.00
72612;BME280;60655;52.182;4.474;2023-10-13T05:40:57;100442.00;;;16.83;100.00
72612;BME280;60655;52.182;4.474;2023-10-13T05:43:17;100438.78;;;16.81;100.00
72612;BME280;60655;52.182;4.474;2023-10-13T05:45:37;100434.75;;;16.74;100.00
72612;BME280;60655;52.182;4.474;2023-10-13T05:48:01;100431.78;;;16.80;100.00
72612;BME280;60655;52.182;4.474;2023-10-13T05:50:13;100433.69;;;16.80;100.00
72612;BME280;60655;52.182;4.474;2023-10-13T05:52:34;100423.50;;;16.72;100.00
72612;BME280;60655;52.182;4.474;2023-10-13T05:55:04;100415.41;;;16.62;100.00
72612;BME280;60655;52.182;4.474;2023-10-13T05:57:24;100404.41;;;16.63;100.00
72612;BME280;60655;52.182;4.474;2023-10-13T05:59:44;100402.78;;;16.62;100.00
72612;BME280;60655;52.182;4.474;2023-10-13T06:02:04;100405.50;;;16.67;100.00
72612;BME280;60655;52.182;4.474;2023-10-13T06:04:37;100400.16;;;16.67;100.00
72612;BME280;60655;52.182;4.474;2023-10-13T06:06:57;100395.59;;;16.68;100.00
72612;BME280;60655;52.182;4.474;2023-10-13T06:09:17;100401.72;;;16.63;100.00
72612;BME280;60655;52.182;4.474;2023-10-13T06:11:36;100397.97;;;16.59;100.00
72612;BME280;60655;52.182;4.474;2023-10-13T06:13:56;100380.25;;;16.63;100.00
72612;BME280;60655;52.182;4.474;2023-10-13T06:16:16;100378.63;;;16.57;100.00
72612;BME280;60655;52.182;4.474;2023-10-13T06:18:35;100374.69;;;16.70;100.00
72612;BME280;60655;52.182;4.474;2023-10-13T06:20:54;100381.59;;;16.61;100.00
72612;BME280;60655;52.182;4.474;2023-10-13T06:23:14;100367.44;;;16.65;100.00
72612;BME280;60655;52.182;4.474;2023-10-13T06:25:34;100370.38;;;16.69;100.00
72612;BME280;60655;52.182;4.474;2023-10-13T06:27:53;100363.41;;;16.73;100.00
72612;BME280;60655;52.182;4.474;2023-10-13T06:30:13;100365.53;;;16.76;100.00
72612;BME280;60655;52.182;4.474;2023-10-13T06:32:14;100362.84;;;16.81;100.00
72612;BME280;60655;52.182;4.474;2023-10-13T06:34:17;100358.03;;;16.78;100.00
72612;BME280;60655;52.182;4.474;2023-10-13T06:36:28;100363.13;;;16.79;100.00
72612;BME280;60655;52.182;4.474;2023-10-13T06:38:30;100355.38;;;16.73;100.00
72612;BME280;60655;52.182;4.474;2023-10-13T06:40:53;100356.97;;;16.84;100.00
72612;BME280;60655;52.182;4.474;2023-10-13T06:42:54;100360.72;;;16.88;100.00
72612;BME280;60655;52.182;4.474;2023-10-13T06:45:13;100348.91;;;16.79;100.00
72612;BME280;60655;52.182;4.474;2023-10-13T06:47:14;100358.31;;;16.92;100.00
72612;BME280;60655;52.182;4.474;2023-10-13T06:49:15;100340.06;;;16.94;100.00
72612;BME280;60655;52.182;4.474;2023-10-13T06:51:19;100353.75;;;16.97;100.00
72612;BME280;60655;52.182;4.474;2023-10-13T06:53:23;100359.91;;;17.03;100.00
72612;BME280;60655;52.182;4.474;2023-10-13T06:55:25;100364.97;;;17.09;100.00
72612;BME280;60655;52.182;4.474;2023-10-13T06:57:28;100357.47;;;17.06;100.00
72612;BME280;60655;52.182;4.474;2023-10-13T06:59:35;100336.81;;;17.07;100.00
72612;BME280;60655;52.182;4.474;2023-10-13T07:01:37;100326.63;;;16.99;100.00
72612;BME280;60655;52.182;4.474;2023-10-13T07:03:44;100309.44;;;17.05;100.00
72612;BME280;60655;52.182;4.474;2023-10-13T07:05:53;100322.03;;;17.14;100.00
72612;BME280;60655;52.182;4.474;2023-10-13T07:07:54;100333.03;;;17.28;100.00
72612;BME280;60655;52.182;4.474;2023-10-13T07:09:57;100335.16;;;17.31;100.00
72612;BME280;60655;52.182;4.474;2023-10-13T07:11:59;100336.25;;;17.30;100.00
72612;BME280;60655;52.182;4.474;2023-10-13T07:14:04;100331.63;;;17.36;100.00
72612;BME280;60655;52.182;4.474;2023-10-13T07:16:11;100314.97;;;17.44;100.00
72612;BME280;60655;52.182;4.474;2023-10-13T07:18:16;100307.72;;;17.44;100.00
72612;BME280;60655;52.182;4.474;2023-10-13T07:20:20;100311.19;;;17.50;100.00
72612;BME280;60655;52.182;4.474;2023-10-13T07:22:29;100299.13;;;17.42;100.00
72612;BME280;60655;52.182;4.474;2023-10-13T07:24:31;100290.50;;;17.50;100.00
72612;BME280;60655;52.182;4.474;2023-10-13T07:26:32;100296.16;;;17.54;100.00
72612;BME280;60655;52.182;4.474;2023-10-13T07:28:34;100293.19;;;17.55;100.00
72612;BME280;60655;52.182;4.474;2023-10-13T07:30:44;100298.00;;;17.59;100.00
72612;BME280;60655;52.182;4.474;2023-10-13T07:33:10;100295.84;;;17.61;100.00
72612;BME280;60655;52.182;4.474;2023-10-13T07:35:15;100296.09;;;17.69;100.00
72612;BME280;60655;52.182;4.474;2023-10-13T07:37:18;100290.16;;;17.77;100.00
72612;BME280;60655;52.182;4.474;2023-10-13T07:39:20;100278.84;;;17.80;100.00
72612;BME280;60655;52.182;4.474;2023-10-13T07:41:22;100284.94;;;17.91;100.00
72612;BME280;60655;52.182;4.474;2023-10-13T07:43:31;100285.47;;;17.93;100.00
72612;BME280;60655;52.182;4.474;2023-10-13T07:45:36;100283.38;;;17.90;100.00
72612;BME280;60655;52.182;4.474;2023-10-13T07:47:37;100293.78;;;17.97;100.00
72612;BME280;60655;52.182;4.474;2023-10-13T07:49:40;100284.34;;;18.04;100.00
72612;BME280;60655;52.182;4.474;2023-10-13T07:51:41;100291.06;;;18.07;100.00
72612;BME280;60655;52.182;4.474;2023-10-13T07:53:45;100287.25;;;18.13;100.00
72612;BME280;60655;52.182;4.474;2023-10-13T07:55:50;100281.63;;;18.09;100.00
72612;BME280;60655;52.182;4.474;2023-10-13T07:58:01;100285.38;;;18.13;100.00
72612;BME280;60655;52.182;4.474;2023-10-13T08:00:08;100282.94;;;18.17;100.00
72612;BME280;60655;52.182;4.474;2023-10-13T08:02:26;100279.09;;;18.23;100.00
72612;BME280;60655;52.182;4.474;2023-10-13T08:04:45;100275.09;;;18.20;100.00
72612;BME280;60655;52.182;4.474;2023-10-13T08:06:48;100286.88;;;18.25;100.00
72612;BME280;60655;52.182;4.474;2023-10-13T08:08:49;100273.97;;;18.27;100.00
72612;BME280;60655;52.182;4.474;2023-10-13T08:13:12;100273.06;;;18.41;100.00
72612;BME280;60655;52.182;4.474;2023-10-13T08:15:13;100271.16;;;18.42;100.00
72612;BME280;60655;52.182;4.474;2023-10-13T08:17:32;100269.28;;;18.42;100.00
72612;BME280;60655;52.182;4.474;2023-10-13T08:19:34;100275.19;;;18.44;100.00
72612;BME280;60655;52.182;4.474;2023-10-13T08:26:53;100248.28;;;18.44;100.00
72612;BME280;60655;52.182;4.474;2023-10-13T08:29:12;100234.03;;;18.44;100.00
72612;BME280;60655;52.182;4.474;2023-10-13T08:31:19;100244.81;;;18.44;100.00
72612;BME280;60655;52.182;4.474;2023-10-13T08:33:23;100246.94;;;18.47;100.00
72612;BME280;60655;52.182;4.474;2023-10-13T08:35:26;100254.19;;;18.46;100.00
72612;BME280;60655;52.182;4.474;2023-10-13T08:37:32;100254.22;;;18.41;100.00
72612;BME280;60655;52.182;4.474;2023-10-13T08:39:36;100251.81;;;18.40;100.00
72612;BME280;60655;52.182;4.474;2023-10-13T08:42:00;100246.69;;;18.43;100.00
72612;BME280;60655;52.182;4.474;2023-10-13T08:44:23;100242.16;;;18.39;100.00
72612;BME280;60655;52.182;4.474;2023-10-13T08:46:33;100230.59;;;18.38;100.00
72612;BME280;60655;52.182;4.474;2023-10-13T08:49:05;100230.19;;;18.50;100.00
72612;BME280;60655;52.182;4.474;2023-10-13T08:51:14;100242.84;;;18.49;100.00
72612;BME280;60655;52.182;4.474;2023-10-13T08:53:32;100214.41;;;18.43;100.00
72612;BME280;60655;52.182;4.474;2023-10-13T08:55:45;100220.97;;;18.61;100.00
72612;BME280;60655;52.182;4.474;2023-10-13T08:58:05;100221.50;;;18.63;100.00
72612;BME280;60655;52.182;4.474;2023-10-13T09:00:14;100216.66;;;18.65;100.00
72612;BME280;60655;52.182;4.474;2023-10-13T09:02:29;100218.03;;;18.58;100.00
72612;BME280;60655;52.182;4.474;2023-10-13T09:04:49;100203.25;;;18.60;100.00
72612;BME280;60655;52.182;4.474;2023-10-13T09:07:10;100193.53;;;18.59;100.00
72612;BME280;60655;52.182;4.474;2023-10-13T09:09:22;100199.66;;;18.70;100.00
72612;BME280;60655;52.182;4.474;2023-10-13T09:11:36;100198.56;;;18.71;100.00
72612;BME280;60655;52.182;4.474;2023-10-13T09:13:49;100191.72;;;18.78;100.00
72612;BME280;60655;52.182;4.474;2023-10-13T09:15:52;100187.66;;;18.81;100.00
72612;BME280;60655;52.182;4.474;2023-10-13T09:18:02;100197.31;;;18.87;100.00
72612;BME280;60655;52.182;4.474;2023-10-13T09:20:17;100188.66;;;18.90;98.89
72612;BME280;60655;52.182;4.474;2023-10-13T09:22:28;100181.03;;;18.97;98.35
72612;BME280;60655;52.182;4.474;2023-10-13T09:24:38;100179.16;;;18.98;98.06
72612;BME280;60655;52.182;4.474;2023-10-13T09:26:43;100185.56;;;19.02;98.37
72612;BME280;60655;52.182;4.474;2023-10-13T09:28:48;100179.91;;;19.03;97.75
72612;BME280;60655;52.182;4.474;2023-10-13T09:30:55;100179.63;;;19.05;98.53
72612;BME280;60655;52.182;4.474;2023-10-13T09:33:03;100176.53;;;19.11;99.14
72612;BME280;60655;52.182;4.474;2023-10-13T09:35:10;100172.53;;;19.09;98.53
72612;BME280;60655;52.182;4.474;2023-10-13T09:37:14;100171.03;;;19.21;98.14
72612;BME280;60655;52.182;4.474;2023-10-13T09:39:24;100172.34;;;19.24;97.71
72612;BME280;60655;52.182;4.474;2023-10-13T09:41:40;100156.13;;;19.29;96.24
72612;BME280;60655;52.182;4.474;2023-10-13T09:43:41;100159.97;;;19.42;97.08
72612;BME280;60655;52.182;4.474;2023-10-13T09:45:48;100150.44;;;19.49;95.58
72612;BME280;60655;52.182;4.474;2023-10-13T09:48:12;100162.28;;;19.53;95.41
72612;BME280;60655;52.182;4.474;2023-10-13T09:50:22;100164.41;;;19.57;94.69
72612;BME280;60655;52.182;4.474;2023-10-13T09:52:27;100152.00;;;19.55;94.05
72612;BME280;60655;52.182;4.474;2023-10-13T09:54:36;100157.22;;;19.66;93.41
72612;BME280;60655;52.182;4.474;2023-10-13T09:57:08;100156.13;;;19.67;94.01
72612;BME280;60655;52.182;4.474;2023-10-13T09:59:15;100149.94;;;19.66;93.27
72612;BME280;60655;52.182;4.474;2023-10-13T10:01:24;100153.44;;;19.67;93.15
72612;BME280;60655;52.182;4.474;2023-10-13T10:03:48;100157.59;;;19.78;92.47
72612;BME280;60655;52.182;4.474;2023-10-13T10:06:00;100159.13;;;19.84;91.28
72612;BME280;60655;52.182;4.474;2023-10-13T10:08:26;100158.31;;;19.83;91.42
72612;BME280;60655;52.182;4.474;2023-10-13T10:10:50;100146.81;;;19.78;91.42
72612;BME280;60655;52.182;4.474;2023-10-13T10:13:07;100138.22;;;19.76;90.51
72612;BME280;60655;52.182;4.474;2023-10-13T10:17:39;100136.91;;;19.92;91.08
72612;BME280;60655;52.182;4.474;2023-10-13T10:19:51;100135.81;;;20.07;90.50
72612;BME280;60655;52.182;4.474;2023-10-13T10:22:05;100133.06;;;20.26;89.77
72612;BME280;60655;52.182;4.474;2023-10-13T10:24:21;100134.47;;;20.37;88.25
72612;BME280;60655;52.182;4.474;2023-10-13T10:26:30;100122.03;;;20.41;85.93
72612;BME280;60655;52.182;4.474;2023-10-13T10:28:36;100128.00;;;20.51;86.00
72612;BME280;60655;52.182;4.474;2023-10-13T10:30:38;100139.31;;;20.53;86.20
72612;BME280;60655;52.182;4.474;2023-10-13T10:32:39;100131.94;;;20.45;85.96
72612;BME280;60655;52.182;4.474;2023-10-13T10:34:49;100112.53;;;20.43;86.16
72612;BME280;60655;52.182;4.474;2023-10-13T10:36:57;100130.53;;;20.48;85.65
72612;BME280;60655;52.182;4.474;2023-10-13T10:38:59;100104.44;;;20.43;83.95
72612;BME280;60655;52.182;4.474;2023-10-13T10:41:02;100109.84;;;20.43;85.33
72612;BME280;60655;52.182;4.474;2023-10-13T10:43:05;100117.13;;;20.43;83.68
72612;BME280;60655;52.182;4.474;2023-10-13T10:45:10;100105.41;;;20.34;83.48
72612;BME280;60655;52.182;4.474;2023-10-13T10:47:14;100101.09;;;20.33;84.10
72612;BME280;60655;52.182;4.474;2023-10-13T10:49:38;100120.53;;;20.48;84.69
72612;BME280;60655;52.182;4.474;2023-10-13T10:51:45;100106.66;;;20.41;85.20
72612;BME280;60655;52.182;4.474;2023-10-13T10:53:45;100120.44;;;20.40;84.60
72612;BME280;60655;52.182;4.474;2023-10-13T10:55:47;100111.91;;;20.33;84.45
72612;BME280;60655;52.182;4.474;2023-10-13T10:57:58;100107.50;;;20.37;85.21
72612;BME280;60655;52.182;4.474;2023-10-13T10:59:59;100093.00;;;20.33;85.47
72612;BME280;60655;52.182;4.474;2023-10-13T11:02:12;100099.00;;;20.30;84.77
72612;BME280;60655;52.182;4.474;2023-10-13T11:04:19;100086.19;;;20.21;85.22
72612;BME280;60655;52.182;4.474;2023-10-13T11:06:35;100082.00;;;20.15;85.14
72612;BME280;60655;52.182;4.474;2023-10-13T11:08:46;100082.53;;;20.17;85.14
72612;BME280;60655;52.182;4.474;2023-10-13T11:10:52;100072.84;;;20.16;85.13
72612;BME280;60655;52.182;4.474;2023-10-13T11:12:56;100082.41;;;20.22;84.63
72612;BME280;60655;52.182;4.474;2023-10-13T11:15:06;100080.50;;;20.23;84.92
72612;BME280;60655;52.182;4.474;2023-10-13T11:17:20;100078.53;;;20.29;84.19